<?xml version="1.0" encoding="UTF-8"?>
<gpx xmlns="http://www.topografix.com/GPX/1/1" xmlns:xsi="http://www.w3.org/2001/XMLSchema-instance" version="1.1" xsi:schemaLocation="http://www.topografix.com/GPX/1/1 http://www.topografix.com/GPX/1/1/gpx.xsd">
  <metadata>
    <name>The Brineman Triathlon 2023 - Sprint Aquabike</name>
  </metadata>
  <trk>
    <name>The Brineman Triathlon 2023 - Sprint Aquabike</name>
    <trkseg>
      <trkpt lat="41.060242" lon="-112.055141">
        <ele>1288.662175</ele>
        <time>2024-09-06T12:01:00.000Z</time>
      </trkpt>
      <trkpt lat="41.060226" lon="-112.06216">
        <ele>1287.501501</ele>
        <time>2024-09-06T12:01:59.000Z</time>
      </trkpt>
      <trkpt lat="41.060222" lon="-112.062169">
        <ele>1287.501496</ele>
        <time>2024-09-06T12:01:59.000Z</time>
      </trkpt>
      <trkpt lat="41.060211" lon="-112.06469">
        <ele>1286.982253</ele>
        <time>2024-09-06T12:02:20.000Z</time>
      </trkpt>
      <trkpt lat="41.060204" lon="-112.071752">
        <ele>1285.466543</ele>
        <time>2024-09-06T12:03:19.000Z</time>
      </trkpt>
      <trkpt lat="41.060255" lon="-112.073537">
        <ele>1285.206684</ele>
        <time>2024-09-06T12:03:34.000Z</time>
      </trkpt>
      <trkpt lat="41.06024" lon="-112.074227">
        <ele>1285.143004</ele>
        <time>2024-09-06T12:03:40.000Z</time>
      </trkpt>
      <trkpt lat="41.060277" lon="-112.074632">
        <ele>1285.104289</ele>
        <time>2024-09-06T12:03:43.000Z</time>
      </trkpt>
      <trkpt lat="41.060426" lon="-112.075326">
        <ele>1285.037672</ele>
        <time>2024-09-06T12:03:49.000Z</time>
      </trkpt>
      <trkpt lat="41.061066" lon="-112.077281">
        <ele>1285.004149</ele>
        <time>2024-09-06T12:04:07.000Z</time>
      </trkpt>
      <trkpt lat="41.061597" lon="-112.079068">
        <ele>1285.031391</ele>
        <time>2024-09-06T12:04:23.000Z</time>
      </trkpt>
      <trkpt lat="41.063044" lon="-112.083934">
        <ele>1285.361743</ele>
        <time>2024-09-06T12:05:07.000Z</time>
      </trkpt>
      <trkpt lat="41.063162" lon="-112.083925">
        <ele>1285.375854</ele>
        <time>2024-09-06T12:05:08.000Z</time>
      </trkpt>
      <trkpt lat="41.067806" lon="-112.08392">
        <ele>1286.890179</ele>
        <time>2024-09-06T12:06:00.000Z</time>
      </trkpt>
      <trkpt lat="41.07182" lon="-112.083899">
        <ele>1288.200867</ele>
        <time>2024-09-06T12:06:45.000Z</time>
      </trkpt>
      <trkpt lat="41.071954" lon="-112.083893">
        <ele>1288.243317</ele>
        <time>2024-09-06T12:06:46.000Z</time>
      </trkpt>
      <trkpt lat="41.073208" lon="-112.083899">
        <ele>1288.646498</ele>
        <time>2024-09-06T12:07:00.000Z</time>
      </trkpt>
      <trkpt lat="41.074717" lon="-112.083888">
        <ele>1288.970818</ele>
        <time>2024-09-06T12:07:17.000Z</time>
      </trkpt>
      <trkpt lat="41.074727" lon="-112.084873">
        <ele>1289.024355</ele>
        <time>2024-09-06T12:07:25.000Z</time>
      </trkpt>
      <trkpt lat="41.07473" lon="-112.08614">
        <ele>1289.03697</ele>
        <time>2024-09-06T12:07:36.000Z</time>
      </trkpt>
      <trkpt lat="41.074724" lon="-112.087524">
        <ele>1289.004478</ele>
        <time>2024-09-06T12:07:48.000Z</time>
      </trkpt>
      <trkpt lat="41.074726" lon="-112.087899">
        <ele>1288.986559</ele>
        <time>2024-09-06T12:07:51.000Z</time>
      </trkpt>
      <trkpt lat="41.074737" lon="-112.088093">
        <ele>1288.966166</ele>
        <time>2024-09-06T12:07:53.000Z</time>
      </trkpt>
      <trkpt lat="41.074735" lon="-112.088559">
        <ele>1288.9137</ele>
        <time>2024-09-06T12:07:57.000Z</time>
      </trkpt>
      <trkpt lat="41.074731" lon="-112.088742">
        <ele>1288.89251</ele>
        <time>2024-09-06T12:07:59.000Z</time>
      </trkpt>
      <trkpt lat="41.074738" lon="-112.088867">
        <ele>1288.878122</ele>
        <time>2024-09-06T12:08:00.000Z</time>
      </trkpt>
      <trkpt lat="41.074727" lon="-112.089059">
        <ele>1288.856471</ele>
        <time>2024-09-06T12:08:02.000Z</time>
      </trkpt>
      <trkpt lat="41.074742" lon="-112.089126">
        <ele>1288.847854</ele>
        <time>2024-09-06T12:08:03.000Z</time>
      </trkpt>
      <trkpt lat="41.074733" lon="-112.0892">
        <ele>1288.840261</ele>
        <time>2024-09-06T12:08:04.000Z</time>
      </trkpt>
      <trkpt lat="41.074735" lon="-112.089385">
        <ele>1288.819414</ele>
        <time>2024-09-06T12:08:06.000Z</time>
      </trkpt>
      <trkpt lat="41.074744" lon="-112.089642">
        <ele>1288.790298</ele>
        <time>2024-09-06T12:08:08.000Z</time>
      </trkpt>
      <trkpt lat="41.074745" lon="-112.090399">
        <ele>1288.703572</ele>
        <time>2024-09-06T12:08:14.000Z</time>
      </trkpt>
      <trkpt lat="41.07474" lon="-112.091507">
        <ele>1288.575385</ele>
        <time>2024-09-06T12:08:23.000Z</time>
      </trkpt>
      <trkpt lat="41.074744" lon="-112.093557">
        <ele>1288.530819</ele>
        <time>2024-09-06T12:08:40.000Z</time>
      </trkpt>
      <trkpt lat="41.074771" lon="-112.094071">
        <ele>1288.572999</ele>
        <time>2024-09-06T12:08:44.000Z</time>
      </trkpt>
      <trkpt lat="41.075279" lon="-112.094058">
        <ele>1288.628171</ele>
        <time>2024-09-06T12:08:50.000Z</time>
      </trkpt>
      <trkpt lat="41.076105" lon="-112.094048">
        <ele>1288.767555</ele>
        <time>2024-09-06T12:08:59.000Z</time>
      </trkpt>
      <trkpt lat="41.076916" lon="-112.094029">
        <ele>1288.91809</ele>
        <time>2024-09-06T12:09:08.000Z</time>
      </trkpt>
      <trkpt lat="41.077758" lon="-112.094055">
        <ele>1288.983844</ele>
        <time>2024-09-06T12:09:17.000Z</time>
      </trkpt>
      <trkpt lat="41.078984" lon="-112.094083">
        <ele>1288.999247</ele>
        <time>2024-09-06T12:09:31.000Z</time>
      </trkpt>
      <trkpt lat="41.079726" lon="-112.094129">
        <ele>1289.028274</ele>
        <time>2024-09-06T12:09:39.000Z</time>
      </trkpt>
      <trkpt lat="41.080469" lon="-112.094244">
        <ele>1289.058391</ele>
        <time>2024-09-06T12:09:47.000Z</time>
      </trkpt>
      <trkpt lat="41.081235" lon="-112.094387">
        <ele>1289.175273</ele>
        <time>2024-09-06T12:09:56.000Z</time>
      </trkpt>
      <trkpt lat="41.081493" lon="-112.094509">
        <ele>1289.245136</ele>
        <time>2024-09-06T12:09:59.000Z</time>
      </trkpt>
      <trkpt lat="41.081713" lon="-112.094649">
        <ele>1289.302277</ele>
        <time>2024-09-06T12:10:02.000Z</time>
      </trkpt>
      <trkpt lat="41.081833" lon="-112.094703">
        <ele>1289.333866</ele>
        <time>2024-09-06T12:10:03.000Z</time>
      </trkpt>
      <trkpt lat="41.081985" lon="-112.0947">
        <ele>1289.372613</ele>
        <time>2024-09-06T12:10:05.000Z</time>
      </trkpt>
      <trkpt lat="41.082431" lon="-112.094721">
        <ele>1289.482658</ele>
        <time>2024-09-06T12:10:10.000Z</time>
      </trkpt>
      <trkpt lat="41.083195" lon="-112.094804">
        <ele>1289.663895</ele>
        <time>2024-09-06T12:10:19.000Z</time>
      </trkpt>
      <trkpt lat="41.083661" lon="-112.094868">
        <ele>1289.774522</ele>
        <time>2024-09-06T12:10:24.000Z</time>
      </trkpt>
      <trkpt lat="41.084076" lon="-112.094919">
        <ele>1289.872947</ele>
        <time>2024-09-06T12:10:29.000Z</time>
      </trkpt>
      <trkpt lat="41.085293" lon="-112.094905">
        <ele>1290.147671</ele>
        <time>2024-09-06T12:10:43.000Z</time>
      </trkpt>
      <trkpt lat="41.086019" lon="-112.094915">
        <ele>1290.305244</ele>
        <time>2024-09-06T12:10:51.000Z</time>
      </trkpt>
      <trkpt lat="41.086184" lon="-112.094908">
        <ele>1290.346863</ele>
        <time>2024-09-06T12:10:53.000Z</time>
      </trkpt>
      <trkpt lat="41.086691" lon="-112.094918">
        <ele>1290.482865</ele>
        <time>2024-09-06T12:10:59.000Z</time>
      </trkpt>
      <trkpt lat="41.086933" lon="-112.095048">
        <ele>1290.554846</ele>
        <time>2024-09-06T12:11:02.000Z</time>
      </trkpt>
      <trkpt lat="41.087133" lon="-112.095291">
        <ele>1290.623679</ele>
        <time>2024-09-06T12:11:05.000Z</time>
      </trkpt>
      <trkpt lat="41.087225" lon="-112.095378">
        <ele>1290.657119</ele>
        <time>2024-09-06T12:11:06.000Z</time>
      </trkpt>
      <trkpt lat="41.087328" lon="-112.095395">
        <ele>1290.682003</ele>
        <time>2024-09-06T12:11:07.000Z</time>
      </trkpt>
      <trkpt lat="41.088086" lon="-112.095403">
        <ele>1290.847014</ele>
        <time>2024-09-06T12:11:15.000Z</time>
      </trkpt>
      <trkpt lat="41.089233" lon="-112.095428">
        <ele>1290.957974</ele>
        <time>2024-09-06T12:11:28.000Z</time>
      </trkpt>
      <trkpt lat="41.09012" lon="-112.095426">
        <ele>1291.019641</ele>
        <time>2024-09-06T12:11:38.000Z</time>
      </trkpt>
      <trkpt lat="41.09154" lon="-112.095443">
        <ele>1291.08474</ele>
        <time>2024-09-06T12:11:54.000Z</time>
      </trkpt>
      <trkpt lat="41.09201" lon="-112.095427">
        <ele>1291.104757</ele>
        <time>2024-09-06T12:11:59.000Z</time>
      </trkpt>
      <trkpt lat="41.092186" lon="-112.095479">
        <ele>1291.112603</ele>
        <time>2024-09-06T12:12:01.000Z</time>
      </trkpt>
      <trkpt lat="41.092437" lon="-112.095624">
        <ele>1291.12433</ele>
        <time>2024-09-06T12:12:04.000Z</time>
      </trkpt>
      <trkpt lat="41.093629" lon="-112.096263">
        <ele>1291.169594</ele>
        <time>2024-09-06T12:12:18.000Z</time>
      </trkpt>
      <trkpt lat="41.094284" lon="-112.096629">
        <ele>1291.186167</ele>
        <time>2024-09-06T12:12:26.000Z</time>
      </trkpt>
      <trkpt lat="41.094365" lon="-112.096674">
        <ele>1291.188482</ele>
        <time>2024-09-06T12:12:27.000Z</time>
      </trkpt>
      <trkpt lat="41.094612" lon="-112.096674">
        <ele>1291.194031</ele>
        <time>2024-09-06T12:12:30.000Z</time>
      </trkpt>
      <trkpt lat="41.094712" lon="-112.096688">
        <ele>1291.196422</ele>
        <time>2024-09-06T12:12:31.000Z</time>
      </trkpt>
      <trkpt lat="41.09471" lon="-112.097906">
        <ele>1291.139541</ele>
        <time>2024-09-06T12:12:41.000Z</time>
      </trkpt>
      <trkpt lat="41.094714" lon="-112.098279">
        <ele>1291.116939</ele>
        <time>2024-09-06T12:12:44.000Z</time>
      </trkpt>
      <trkpt lat="41.094712" lon="-112.098752">
        <ele>1291.088642</ele>
        <time>2024-09-06T12:12:48.000Z</time>
      </trkpt>
      <trkpt lat="41.094726" lon="-112.099174">
        <ele>1291.063839</ele>
        <time>2024-09-06T12:12:52.000Z</time>
      </trkpt>
      <trkpt lat="41.094756" lon="-112.099518">
        <ele>1291.014101</ele>
        <time>2024-09-06T12:12:55.000Z</time>
      </trkpt>
      <trkpt lat="41.094764" lon="-112.100099">
        <ele>1290.913995</ele>
        <time>2024-09-06T12:13:00.000Z</time>
      </trkpt>
      <trkpt lat="41.094756" lon="-112.100154">
        <ele>1290.903621</ele>
        <time>2024-09-06T12:13:00.000Z</time>
      </trkpt>
      <trkpt lat="41.094714" lon="-112.10045">
        <ele>1290.853026</ele>
        <time>2024-09-06T12:13:03.000Z</time>
      </trkpt>
      <trkpt lat="41.094693" lon="-112.10066">
        <ele>1290.81568</ele>
        <time>2024-09-06T12:13:05.000Z</time>
      </trkpt>
      <trkpt lat="41.094689" lon="-112.101383">
        <ele>1290.691585</ele>
        <time>2024-09-06T12:13:11.000Z</time>
      </trkpt>
      <trkpt lat="41.09472" lon="-112.103134">
        <ele>1290.322037</ele>
        <time>2024-09-06T12:13:26.000Z</time>
      </trkpt>
      <trkpt lat="41.094767" lon="-112.103196">
        <ele>1290.300006</ele>
        <time>2024-09-06T12:13:27.000Z</time>
      </trkpt>
      <trkpt lat="41.094773" lon="-112.103558">
        <ele>1290.221851</ele>
        <time>2024-09-06T12:13:30.000Z</time>
      </trkpt>
      <trkpt lat="41.094745" lon="-112.103693">
        <ele>1290.192305</ele>
        <time>2024-09-06T12:13:31.000Z</time>
      </trkpt>
      <trkpt lat="41.094748" lon="-112.10417">
        <ele>1290.086147</ele>
        <time>2024-09-06T12:13:35.000Z</time>
      </trkpt>
      <trkpt lat="41.094754" lon="-112.104393">
        <ele>1290.039379</ele>
        <time>2024-09-06T12:13:37.000Z</time>
      </trkpt>
      <trkpt lat="41.094794" lon="-112.104651">
        <ele>1289.979605</ele>
        <time>2024-09-06T12:13:39.000Z</time>
      </trkpt>
      <trkpt lat="41.095035" lon="-112.105568">
        <ele>1289.769108</ele>
        <time>2024-09-06T12:13:47.000Z</time>
      </trkpt>
      <trkpt lat="41.095332" lon="-112.106667">
        <ele>1289.510727</ele>
        <time>2024-09-06T12:13:57.000Z</time>
      </trkpt>
      <trkpt lat="41.095632" lon="-112.107792">
        <ele>1289.237134</ele>
        <time>2024-09-06T12:14:07.000Z</time>
      </trkpt>
      <trkpt lat="41.095732" lon="-112.108147">
        <ele>1289.151443</ele>
        <time>2024-09-06T12:14:10.000Z</time>
      </trkpt>
      <trkpt lat="41.095754" lon="-112.108443">
        <ele>1289.081789</ele>
        <time>2024-09-06T12:14:12.000Z</time>
      </trkpt>
      <trkpt lat="41.095762" lon="-112.108781">
        <ele>1289.014917</ele>
        <time>2024-09-06T12:14:15.000Z</time>
      </trkpt>
      <trkpt lat="41.095655" lon="-112.109343">
        <ele>1288.908172</ele>
        <time>2024-09-06T12:14:20.000Z</time>
      </trkpt>
      <trkpt lat="41.095572" lon="-112.109617">
        <ele>1288.851355</ele>
        <time>2024-09-06T12:14:22.000Z</time>
      </trkpt>
      <trkpt lat="41.09499" lon="-112.110767">
        <ele>1288.59393</ele>
        <time>2024-09-06T12:14:34.000Z</time>
      </trkpt>
      <trkpt lat="41.094729" lon="-112.111313">
        <ele>1288.488405</ele>
        <time>2024-09-06T12:14:39.000Z</time>
      </trkpt>
      <trkpt lat="41.09469" lon="-112.111503">
        <ele>1288.454815</ele>
        <time>2024-09-06T12:14:41.000Z</time>
      </trkpt>
      <trkpt lat="41.094655" lon="-112.11169">
        <ele>1288.420885</ele>
        <time>2024-09-06T12:14:43.000Z</time>
      </trkpt>
      <trkpt lat="41.094661" lon="-112.112046">
        <ele>1288.361306</ele>
        <time>2024-09-06T12:14:46.000Z</time>
      </trkpt>
      <trkpt lat="41.094662" lon="-112.112701">
        <ele>1288.253479</ele>
        <time>2024-09-06T12:14:51.000Z</time>
      </trkpt>
      <trkpt lat="41.092924" lon="-112.112695">
        <ele>1288.120896</ele>
        <time>2024-09-06T12:15:10.000Z</time>
      </trkpt>
      <trkpt lat="41.091637" lon="-112.112699">
        <ele>1288.112722</ele>
        <time>2024-09-06T12:15:24.000Z</time>
      </trkpt>
      <trkpt lat="41.091226" lon="-112.112701">
        <ele>1288.114852</ele>
        <time>2024-09-06T12:15:29.000Z</time>
      </trkpt>
      <trkpt lat="41.090551" lon="-112.112703">
        <ele>1288.04879</ele>
        <time>2024-09-06T12:15:37.000Z</time>
      </trkpt>
      <trkpt lat="41.089256" lon="-112.112719">
        <ele>1287.790097</ele>
        <time>2024-09-06T12:15:51.000Z</time>
      </trkpt>
      <trkpt lat="41.089256" lon="-112.113727">
        <ele>1287.341939</ele>
        <time>2024-09-06T12:15:59.000Z</time>
      </trkpt>
      <trkpt lat="41.089258" lon="-112.113781">
        <ele>1287.315444</ele>
        <time>2024-09-06T12:15:59.000Z</time>
      </trkpt>
      <trkpt lat="41.089252" lon="-112.114286">
        <ele>1287.05411</ele>
        <time>2024-09-06T12:16:03.000Z</time>
      </trkpt>
      <trkpt lat="41.08926" lon="-112.117163">
        <ele>1285.473604</ele>
        <time>2024-09-06T12:16:27.000Z</time>
      </trkpt>
      <trkpt lat="41.089251" lon="-112.119126">
        <ele>1284.86061</ele>
        <time>2024-09-06T12:16:43.000Z</time>
      </trkpt>
      <trkpt lat="41.089084" lon="-112.119133">
        <ele>1284.81062</ele>
        <time>2024-09-06T12:16:45.000Z</time>
      </trkpt>
      <trkpt lat="41.088999" lon="-112.119061">
        <ele>1284.784791</ele>
        <time>2024-09-06T12:16:46.000Z</time>
      </trkpt>
      <trkpt lat="41.088973" lon="-112.118956">
        <ele>1284.758769</ele>
        <time>2024-09-06T12:16:47.000Z</time>
      </trkpt>
      <trkpt lat="41.088964" lon="-112.118691">
        <ele>1284.701375</ele>
        <time>2024-09-06T12:16:49.000Z</time>
      </trkpt>
      <trkpt lat="41.088964" lon="-112.118423">
        <ele>1284.664613</ele>
        <time>2024-09-06T12:16:51.000Z</time>
      </trkpt>
      <trkpt lat="41.088964" lon="-112.118692">
        <ele>1284.71635</ele>
        <time>2024-09-06T12:16:53.000Z</time>
      </trkpt>
      <trkpt lat="41.088965" lon="-112.118957">
        <ele>1284.769685</ele>
        <time>2024-09-06T12:16:55.000Z</time>
      </trkpt>
      <trkpt lat="41.089013" lon="-112.119075">
        <ele>1284.793868</ele>
        <time>2024-09-06T12:16:56.000Z</time>
      </trkpt>
      <trkpt lat="41.08909" lon="-112.119137">
        <ele>1284.817877</ele>
        <time>2024-09-06T12:16:57.000Z</time>
      </trkpt>
      <trkpt lat="41.089253" lon="-112.119142">
        <ele>1284.864324</ele>
        <time>2024-09-06T12:16:59.000Z</time>
      </trkpt>
      <trkpt lat="41.089267" lon="-112.117161">
        <ele>1285.482899</ele>
        <time>2024-09-06T12:17:16.000Z</time>
      </trkpt>
      <trkpt lat="41.089248" lon="-112.114293">
        <ele>1287.056483</ele>
        <time>2024-09-06T12:17:40.000Z</time>
      </trkpt>
      <trkpt lat="41.089258" lon="-112.113773">
        <ele>1287.324501</ele>
        <time>2024-09-06T12:17:44.000Z</time>
      </trkpt>
      <trkpt lat="41.089243" lon="-112.11374">
        <ele>1287.351693</ele>
        <time>2024-09-06T12:17:44.000Z</time>
      </trkpt>
      <trkpt lat="41.089258" lon="-112.112714">
        <ele>1287.778727</ele>
        <time>2024-09-06T12:17:53.000Z</time>
      </trkpt>
      <trkpt lat="41.090551" lon="-112.112715">
        <ele>1288.055313</ele>
        <time>2024-09-06T12:18:07.000Z</time>
      </trkpt>
      <trkpt lat="41.091222" lon="-112.112703">
        <ele>1288.11145</ele>
        <time>2024-09-06T12:18:14.000Z</time>
      </trkpt>
      <trkpt lat="41.091623" lon="-112.112707">
        <ele>1288.109802</ele>
        <time>2024-09-06T12:18:18.000Z</time>
      </trkpt>
      <trkpt lat="41.092925" lon="-112.112705">
        <ele>1288.122278</ele>
        <time>2024-09-06T12:18:32.000Z</time>
      </trkpt>
      <trkpt lat="41.094665" lon="-112.112705">
        <ele>1288.25828</ele>
        <time>2024-09-06T12:18:51.000Z</time>
      </trkpt>
      <trkpt lat="41.094662" lon="-112.112046">
        <ele>1288.363384</ele>
        <time>2024-09-06T12:18:57.000Z</time>
      </trkpt>
      <trkpt lat="41.094655" lon="-112.111695">
        <ele>1288.421481</ele>
        <time>2024-09-06T12:19:00.000Z</time>
      </trkpt>
      <trkpt lat="41.094679" lon="-112.111491">
        <ele>1288.454574</ele>
        <time>2024-09-06T12:19:02.000Z</time>
      </trkpt>
      <trkpt lat="41.094731" lon="-112.111302">
        <ele>1288.487308</ele>
        <time>2024-09-06T12:19:04.000Z</time>
      </trkpt>
      <trkpt lat="41.094993" lon="-112.110765">
        <ele>1288.590189</ele>
        <time>2024-09-06T12:19:09.000Z</time>
      </trkpt>
      <trkpt lat="41.095582" lon="-112.109614">
        <ele>1288.851075</ele>
        <time>2024-09-06T12:19:21.000Z</time>
      </trkpt>
      <trkpt lat="41.095655" lon="-112.109342">
        <ele>1288.908258</ele>
        <time>2024-09-06T12:19:23.000Z</time>
      </trkpt>
      <trkpt lat="41.095758" lon="-112.108776">
        <ele>1289.015724</ele>
        <time>2024-09-06T12:19:28.000Z</time>
      </trkpt>
      <trkpt lat="41.095749" lon="-112.108443">
        <ele>1289.086071</ele>
        <time>2024-09-06T12:19:31.000Z</time>
      </trkpt>
      <trkpt lat="41.095723" lon="-112.108141">
        <ele>1289.154909</ele>
        <time>2024-09-06T12:19:34.000Z</time>
      </trkpt>
      <trkpt lat="41.09563" lon="-112.107792">
        <ele>1289.239586</ele>
        <time>2024-09-06T12:19:37.000Z</time>
      </trkpt>
      <trkpt lat="41.095333" lon="-112.106665">
        <ele>1289.509897</ele>
        <time>2024-09-06T12:19:47.000Z</time>
      </trkpt>
      <trkpt lat="41.095036" lon="-112.105573">
        <ele>1289.761748</ele>
        <time>2024-09-06T12:19:57.000Z</time>
      </trkpt>
      <trkpt lat="41.094804" lon="-112.104661">
        <ele>1289.96686</ele>
        <time>2024-09-06T12:20:05.000Z</time>
      </trkpt>
      <trkpt lat="41.094762" lon="-112.104386">
        <ele>1290.025114</ele>
        <time>2024-09-06T12:20:07.000Z</time>
      </trkpt>
      <trkpt lat="41.094764" lon="-112.104172">
        <ele>1290.070691</ele>
        <time>2024-09-06T12:20:09.000Z</time>
      </trkpt>
      <trkpt lat="41.094755" lon="-112.103697">
        <ele>1290.177084</ele>
        <time>2024-09-06T12:20:13.000Z</time>
      </trkpt>
      <trkpt lat="41.094648" lon="-112.103511">
        <ele>1290.225922</ele>
        <time>2024-09-06T12:20:15.000Z</time>
      </trkpt>
      <trkpt lat="41.094661" lon="-112.103209">
        <ele>1290.290889</ele>
        <time>2024-09-06T12:20:18.000Z</time>
      </trkpt>
      <trkpt lat="41.094719" lon="-112.103128">
        <ele>1290.317876</ele>
        <time>2024-09-06T12:20:19.000Z</time>
      </trkpt>
      <trkpt lat="41.094699" lon="-112.10139">
        <ele>1290.687174</ele>
        <time>2024-09-06T12:20:34.000Z</time>
      </trkpt>
      <trkpt lat="41.09469" lon="-112.100658">
        <ele>1290.817386</ele>
        <time>2024-09-06T12:20:40.000Z</time>
      </trkpt>
      <trkpt lat="41.094713" lon="-112.10045">
        <ele>1290.856597</ele>
        <time>2024-09-06T12:20:42.000Z</time>
      </trkpt>
      <trkpt lat="41.09477" lon="-112.100106">
        <ele>1290.920581</ele>
        <time>2024-09-06T12:20:45.000Z</time>
      </trkpt>
      <trkpt lat="41.09476" lon="-112.099526">
        <ele>1291.025638</ele>
        <time>2024-09-06T12:20:50.000Z</time>
      </trkpt>
      <trkpt lat="41.094729" lon="-112.09918">
        <ele>1291.062004</ele>
        <time>2024-09-06T12:20:53.000Z</time>
      </trkpt>
      <trkpt lat="41.09472" lon="-112.098759">
        <ele>1291.088734</ele>
        <time>2024-09-06T12:20:57.000Z</time>
      </trkpt>
      <trkpt lat="41.094707" lon="-112.098279">
        <ele>1291.119249</ele>
        <time>2024-09-06T12:21:01.000Z</time>
      </trkpt>
      <trkpt lat="41.094721" lon="-112.0979">
        <ele>1291.14359</ele>
        <time>2024-09-06T12:21:04.000Z</time>
      </trkpt>
      <trkpt lat="41.094701" lon="-112.096681">
        <ele>1291.194831</ele>
        <time>2024-09-06T12:21:14.000Z</time>
      </trkpt>
      <trkpt lat="41.09461" lon="-112.096684">
        <ele>1291.19277</ele>
        <time>2024-09-06T12:21:15.000Z</time>
      </trkpt>
      <trkpt lat="41.094379" lon="-112.096679">
        <ele>1291.187978</ele>
        <time>2024-09-06T12:21:18.000Z</time>
      </trkpt>
      <trkpt lat="41.094287" lon="-112.096626">
        <ele>1291.185958</ele>
        <time>2024-09-06T12:21:19.000Z</time>
      </trkpt>
      <trkpt lat="41.093619" lon="-112.096272">
        <ele>1291.171644</ele>
        <time>2024-09-06T12:21:27.000Z</time>
      </trkpt>
      <trkpt lat="41.092433" lon="-112.095625">
        <ele>1291.124681</ele>
        <time>2024-09-06T12:21:41.000Z</time>
      </trkpt>
      <trkpt lat="41.092181" lon="-112.095473">
        <ele>1291.112666</ele>
        <time>2024-09-06T12:21:44.000Z</time>
      </trkpt>
      <trkpt lat="41.092009" lon="-112.095441">
        <ele>1291.104635</ele>
        <time>2024-09-06T12:21:46.000Z</time>
      </trkpt>
      <trkpt lat="41.091538" lon="-112.095432">
        <ele>1291.084071</ele>
        <time>2024-09-06T12:21:51.000Z</time>
      </trkpt>
      <trkpt lat="41.090113" lon="-112.095424">
        <ele>1291.018917</ele>
        <time>2024-09-06T12:22:07.000Z</time>
      </trkpt>
      <trkpt lat="41.08924" lon="-112.095439">
        <ele>1290.955936</ele>
        <time>2024-09-06T12:22:17.000Z</time>
      </trkpt>
      <trkpt lat="41.088075" lon="-112.0954">
        <ele>1290.853477</ele>
        <time>2024-09-06T12:22:30.000Z</time>
      </trkpt>
      <trkpt lat="41.087326" lon="-112.095395">
        <ele>1290.676614</ele>
        <time>2024-09-06T12:22:38.000Z</time>
      </trkpt>
      <trkpt lat="41.087237" lon="-112.095378">
        <ele>1290.652483</ele>
        <time>2024-09-06T12:22:39.000Z</time>
      </trkpt>
      <trkpt lat="41.087133" lon="-112.095283">
        <ele>1290.620033</ele>
        <time>2024-09-06T12:22:40.000Z</time>
      </trkpt>
      <trkpt lat="41.086941" lon="-112.095064">
        <ele>1290.553245</ele>
        <time>2024-09-06T12:22:43.000Z</time>
      </trkpt>
      <trkpt lat="41.0867" lon="-112.094911">
        <ele>1290.483397</ele>
        <time>2024-09-06T12:22:46.000Z</time>
      </trkpt>
      <trkpt lat="41.086191" lon="-112.094905">
        <ele>1290.353898</ele>
        <time>2024-09-06T12:22:52.000Z</time>
      </trkpt>
      <trkpt lat="41.086002" lon="-112.094914">
        <ele>1290.312447</ele>
        <time>2024-09-06T12:22:54.000Z</time>
      </trkpt>
      <trkpt lat="41.085297" lon="-112.094902">
        <ele>1290.150276</ele>
        <time>2024-09-06T12:23:02.000Z</time>
      </trkpt>
      <trkpt lat="41.08409" lon="-112.094919">
        <ele>1289.870614</ele>
        <time>2024-09-06T12:23:15.000Z</time>
      </trkpt>
      <trkpt lat="41.083198" lon="-112.094807">
        <ele>1289.665252</ele>
        <time>2024-09-06T12:23:25.000Z</time>
      </trkpt>
      <trkpt lat="41.082419" lon="-112.094717">
        <ele>1289.483122</ele>
        <time>2024-09-06T12:23:34.000Z</time>
      </trkpt>
      <trkpt lat="41.081989" lon="-112.0947">
        <ele>1289.370501</ele>
        <time>2024-09-06T12:23:39.000Z</time>
      </trkpt>
      <trkpt lat="41.081832" lon="-112.094697">
        <ele>1289.330866</ele>
        <time>2024-09-06T12:23:41.000Z</time>
      </trkpt>
      <trkpt lat="41.081699" lon="-112.09465">
        <ele>1289.298539</ele>
        <time>2024-09-06T12:23:43.000Z</time>
      </trkpt>
      <trkpt lat="41.081502" lon="-112.094505">
        <ele>1289.240068</ele>
        <time>2024-09-06T12:23:46.000Z</time>
      </trkpt>
      <trkpt lat="41.081226" lon="-112.09438">
        <ele>1289.168592</ele>
        <time>2024-09-06T12:23:49.000Z</time>
      </trkpt>
      <trkpt lat="41.080475" lon="-112.094244">
        <ele>1289.066932</ele>
        <time>2024-09-06T12:23:57.000Z</time>
      </trkpt>
      <trkpt lat="41.079742" lon="-112.094123">
        <ele>1289.029757</ele>
        <time>2024-09-06T12:24:05.000Z</time>
      </trkpt>
      <trkpt lat="41.078973" lon="-112.09408">
        <ele>1288.998629</ele>
        <time>2024-09-06T12:24:14.000Z</time>
      </trkpt>
      <trkpt lat="41.077747" lon="-112.094058">
        <ele>1288.98822</ele>
        <time>2024-09-06T12:24:28.000Z</time>
      </trkpt>
      <trkpt lat="41.076921" lon="-112.094034">
        <ele>1288.9104</ele>
        <time>2024-09-06T12:24:37.000Z</time>
      </trkpt>
      <trkpt lat="41.076095" lon="-112.09405">
        <ele>1288.767367</ele>
        <time>2024-09-06T12:24:46.000Z</time>
      </trkpt>
      <trkpt lat="41.075277" lon="-112.094069">
        <ele>1288.636737</ele>
        <time>2024-09-06T12:24:55.000Z</time>
      </trkpt>
      <trkpt lat="41.07476" lon="-112.094074">
        <ele>1288.57399</ele>
        <time>2024-09-06T12:25:01.000Z</time>
      </trkpt>
      <trkpt lat="41.074753" lon="-112.093559">
        <ele>1288.525995</ele>
        <time>2024-09-06T12:25:05.000Z</time>
      </trkpt>
      <trkpt lat="41.074735" lon="-112.091501">
        <ele>1288.578187</ele>
        <time>2024-09-06T12:25:22.000Z</time>
      </trkpt>
      <trkpt lat="41.074739" lon="-112.0904">
        <ele>1288.697313</ele>
        <time>2024-09-06T12:25:31.000Z</time>
      </trkpt>
      <trkpt lat="41.074729" lon="-112.089635">
        <ele>1288.788058</ele>
        <time>2024-09-06T12:25:37.000Z</time>
      </trkpt>
      <trkpt lat="41.074744" lon="-112.089389">
        <ele>1288.819045</ele>
        <time>2024-09-06T12:25:39.000Z</time>
      </trkpt>
      <trkpt lat="41.07474" lon="-112.089191">
        <ele>1288.841244</ele>
        <time>2024-09-06T12:25:41.000Z</time>
      </trkpt>
      <trkpt lat="41.074741" lon="-112.089123">
        <ele>1288.849323</ele>
        <time>2024-09-06T12:25:42.000Z</time>
      </trkpt>
      <trkpt lat="41.074729" lon="-112.089051">
        <ele>1288.858491</ele>
        <time>2024-09-06T12:25:43.000Z</time>
      </trkpt>
      <trkpt lat="41.074729" lon="-112.088864">
        <ele>1288.881519</ele>
        <time>2024-09-06T12:25:45.000Z</time>
      </trkpt>
      <trkpt lat="41.074728" lon="-112.088735">
        <ele>1288.896834</ele>
        <time>2024-09-06T12:25:46.000Z</time>
      </trkpt>
      <trkpt lat="41.074738" lon="-112.088547">
        <ele>1288.919387</ele>
        <time>2024-09-06T12:25:48.000Z</time>
      </trkpt>
      <trkpt lat="41.074735" lon="-112.088085">
        <ele>1288.975216</ele>
        <time>2024-09-06T12:25:52.000Z</time>
      </trkpt>
      <trkpt lat="41.074731" lon="-112.087908">
        <ele>1288.993484</ele>
        <time>2024-09-06T12:25:53.000Z</time>
      </trkpt>
      <trkpt lat="41.074726" lon="-112.087521">
        <ele>1289.002222</ele>
        <time>2024-09-06T12:25:56.000Z</time>
      </trkpt>
      <trkpt lat="41.074718" lon="-112.086128">
        <ele>1289.034515</ele>
        <time>2024-09-06T12:26:08.000Z</time>
      </trkpt>
      <trkpt lat="41.074713" lon="-112.08488">
        <ele>1289.019328</ele>
        <time>2024-09-06T12:26:18.000Z</time>
      </trkpt>
      <trkpt lat="41.074719" lon="-112.083879">
        <ele>1288.977604</ele>
        <time>2024-09-06T12:26:26.000Z</time>
      </trkpt>
      <trkpt lat="41.073211" lon="-112.083888">
        <ele>1288.643374</ele>
        <time>2024-09-06T12:26:43.000Z</time>
      </trkpt>
      <trkpt lat="41.071955" lon="-112.083894">
        <ele>1288.245961</ele>
        <time>2024-09-06T12:26:57.000Z</time>
      </trkpt>
      <trkpt lat="41.07182" lon="-112.083907">
        <ele>1288.203455</ele>
        <time>2024-09-06T12:26:59.000Z</time>
      </trkpt>
      <trkpt lat="41.067804" lon="-112.083928">
        <ele>1286.890239</ele>
        <time>2024-09-06T12:27:44.000Z</time>
      </trkpt>
      <trkpt lat="41.063167" lon="-112.083925">
        <ele>1285.385747</ele>
        <time>2024-09-06T12:28:36.000Z</time>
      </trkpt>
      <trkpt lat="41.063044" lon="-112.08393">
        <ele>1285.370565</ele>
        <time>2024-09-06T12:28:37.000Z</time>
      </trkpt>
      <trkpt lat="41.061605" lon="-112.079059">
        <ele>1285.032863</ele>
        <time>2024-09-06T12:29:21.000Z</time>
      </trkpt>
      <trkpt lat="41.061068" lon="-112.077285">
        <ele>1285.004976</ele>
        <time>2024-09-06T12:29:37.000Z</time>
      </trkpt>
      <trkpt lat="41.060408" lon="-112.075341">
        <ele>1285.043764</ele>
        <time>2024-09-06T12:29:55.000Z</time>
      </trkpt>
      <trkpt lat="41.060264" lon="-112.074635">
        <ele>1285.107206</ele>
        <time>2024-09-06T12:30:01.000Z</time>
      </trkpt>
      <trkpt lat="41.060248" lon="-112.074223">
        <ele>1285.144102</ele>
        <time>2024-09-06T12:30:04.000Z</time>
      </trkpt>
      <trkpt lat="41.060255" lon="-112.073536">
        <ele>1285.204761</ele>
        <time>2024-09-06T12:30:10.000Z</time>
      </trkpt>
      <trkpt lat="41.060208" lon="-112.071754">
        <ele>1285.465001</ele>
        <time>2024-09-06T12:30:25.000Z</time>
      </trkpt>
      <trkpt lat="41.060202" lon="-112.064695">
        <ele>1286.982382</ele>
        <time>2024-09-06T12:31:24.000Z</time>
      </trkpt>
      <trkpt lat="41.060226" lon="-112.062157">
        <ele>1287.501421</ele>
        <time>2024-09-06T12:31:45.000Z</time>
      </trkpt>
      <trkpt lat="41.060215" lon="-112.062158">
        <ele>1287.501437</ele>
        <time>2024-09-06T12:31:45.000Z</time>
      </trkpt>
      <trkpt lat="41.060238" lon="-112.055131">
        <ele>1288.6351122</ele>
        <time>2024-09-06T12:32:44.000Z</time>
      </trkpt>
      <trkpt lat="41.060306" lon="-112.055147">
        <ele>1288.64988866</ele>
        <time>2024-09-06T12:32:45.000Z</time>
      </trkpt>
      <trkpt lat="41.060593" lon="-112.055156">
        <ele>1288.71131226</ele>
        <time>2024-09-06T12:32:48.000Z</time>
      </trkpt>
    </trkseg>
  </trk>
</gpx>

<!--
Performance optimized by W3 Total Cache. Learn more: https://www.boldgrid.com/w3-total-cache/?utm_source=w3tc&utm_medium=footer_comment&utm_campaign=free_plugin

Page Caching using Disk: Enhanced{w3tc_pagecache_reject_reason} 

Served from: www.aquabike.world @ 2026-05-10 20:19:55 by W3 Total Cache
-->